Airport details for: LGMT (Greece)

Metar

LGMT 250920Z VRB03KT CAVOK 17/10 Q1019

General details

ICAO: LGMT
IATA: MJT
Name (city): Odysseas Elytis
Major:
Country: Greece
vACC: Hellenic vACC
Description:

Mytilene International Airport (also known as Odysseas Elytis) (IATA: MJT, ICAO: LGMT) is an airport in Mytilene, on Lesbos Island, Greece. The airport has one small terminal that services both International and Domestic flights. The airport is 8 kilometres from Mytilene. It was established in 1948 with an unpaved runway of 1200 meters long and 30 meters wide. Over the years the runway was paved and in 2000 the latest runway extension to 2400 meters was made. The airport has a duty-free shop, café-bar and two car rental agencies. On the northern apron the Mitilini Airclub has a little area which has been appointed by the Hellenic Civil Aviation Authority.

Scenery links:
FS9 scenery:
FSX/P3D scenery:
XP scenery:
Elevation: 57 ft.
Transition altitude: 4500 ft.
MSA: 7800 ft.
Latitude: 39.057778
Longitude: 26.598611
LGMT Charts
LGMT Notams
LGMT Online stations

Runways

Number Course Length Elevation Lat Lon ILS ILS freq ILS FAC GP
14 144° 7894ft / 2406 m 58ft 39.066447 26.591667 - - 3.0°
32 324° 7894ft / 2406 m 21ft 39.052778 26.6025 - - 3.0°